createdAt,value
2023-01-27T00:01:07.164Z,94887.75
2023-01-27T00:03:35.072Z,94868.28
2023-01-27T00:06:04.864Z,94849.00
2023-01-27T00:08:32.804Z,94822.06
2023-01-27T00:11:18.911Z,94793.53
2023-01-27T00:13:48.086Z,94788.34
2023-01-27T00:16:15.958Z,94759.13
2023-01-27T00:18:43.837Z,94785.88
2023-01-27T00:21:29.090Z,94818.50
2023-01-27T00:24:14.457Z,94888.41
2023-01-27T00:26:42.222Z,94964.22
2023-01-27T00:29:11.360Z,94980.44
2023-01-27T00:31:56.615Z,94983.38
2023-01-27T00:34:24.493Z,95004.16
2023-01-27T00:36:52.242Z,95003.84
2023-01-27T00:39:20.006Z,94974.13
2023-01-27T00:41:47.782Z,95002.19
2023-01-27T00:44:17.000Z,95005.59
2023-01-27T00:46:45.059Z,94965.69
2023-01-27T00:49:13.543Z,94946.38
2023-01-27T00:51:41.685Z,94960.81
2023-01-27T00:54:09.694Z,94976.06
2023-01-27T00:56:38.007Z,95000.28
2023-01-27T00:59:06.001Z,95008.53
2023-01-27T01:01:35.504Z,95000.28
2023-01-27T01:04:03.447Z,94957.41
2023-01-27T01:06:31.411Z,94909.38
2023-01-27T01:08:59.557Z,94877.53
2023-01-27T01:11:27.695Z,94851.41
2023-01-27T01:13:56.566Z,94811.03
2023-01-27T01:16:26.280Z,94779.88
2023-01-27T01:18:55.753Z,94752.00
2023-01-27T01:21:24.818Z,94763.03
2023-01-27T01:23:52.608Z,94756.22
2023-01-27T01:26:20.432Z,94742.91
2023-01-27T01:28:48.941Z,94743.25
2023-01-27T01:31:18.733Z,94736.13
2023-01-27T01:33:47.030Z,94742.91
2023-01-27T01:36:18.805Z,94731.25
2023-01-27T01:38:47.120Z,94705.97
2023-01-27T01:41:17.139Z,94683.28
2023-01-27T01:43:45.280Z,94695.09
2023-01-27T01:46:13.424Z,94694.13
2023-01-27T01:48:44.407Z,94632.06
2023-01-27T01:51:16.220Z,94559.31
2023-01-27T01:53:52.892Z,94521.28
2023-01-27T01:56:25.277Z,94467.38
2023-01-27T01:58:56.206Z,94466.41
2023-01-27T02:01:24.117Z,94453.94
2023-01-27T02:03:57.746Z,94480.00
2023-01-27T02:06:25.935Z,94511.25
2023-01-27T02:08:56.175Z,94518.03
2023-01-27T02:11:24.372Z,94553.00
2023-01-27T02:13:52.702Z,94547.81
2023-01-27T02:16:20.605Z,94542.16
2023-01-27T02:18:48.651Z,94520.31
2023-01-27T02:21:16.495Z,94489.22
2023-01-27T02:24:00.945Z,94496.34
2023-01-27T02:26:34.579Z,94500.88
2023-01-27T02:29:09.810Z,94471.59
2023-01-27T02:31:43.508Z,94494.41
2023-01-27T02:34:14.820Z,94489.22
2023-01-27T02:36:48.798Z,94486.47
2023-01-27T02:39:19.682Z,94493.44
2023-01-27T02:41:52.146Z,94467.22
2023-01-27T02:44:19.972Z,94415.09
2023-01-27T02:46:47.830Z,94380.81
2023-01-27T02:49:16.095Z,94368.03
2023-01-27T02:51:43.911Z,94381.78
2023-01-27T02:54:11.687Z,94384.69
2023-01-27T02:56:39.816Z,94403.44
2023-01-27T02:59:08.988Z,94409.28
2023-01-27T03:01:36.896Z,94436.13
2023-01-27T03:04:06.022Z,94404.75
2023-01-27T03:06:33.875Z,94365.44
2023-01-27T03:09:02.131Z,94362.38
2023-01-27T03:11:47.478Z,94363.81
2023-01-27T03:14:16.681Z,94304.47
2023-01-27T03:17:02.343Z,94317.72
2023-01-27T03:19:30.167Z,94337.13
2023-01-27T03:21:57.971Z,94342.97
2023-01-27T03:24:29.084Z,94315.28
2023-01-27T03:26:57.711Z,94294.44
2023-01-27T03:29:44.463Z,94305.09
2023-01-27T03:32:12.482Z,94303.50
2023-01-27T03:34:40.276Z,94316.09
2023-01-27T03:37:25.740Z,94305.44
2023-01-27T03:40:11.015Z,94262.44
2023-01-27T03:42:56.520Z,94267.44
2023-01-27T03:45:43.051Z,94301.88
2023-01-27T03:48:10.919Z,94282.66
2023-01-27T03:50:42.100Z,94260.00
2023-01-27T03:53:10.598Z,94245.78
2023-01-27T03:55:39.561Z,94212.31
2023-01-27T03:58:19.859Z,94208.75
2023-01-27T04:00:52.100Z,94192.78
2023-01-27T04:03:38.734Z,94190.34
2023-01-27T04:06:26.522Z,94156.13
2023-01-27T04:08:54.647Z,94091.84
2023-01-27T04:11:40.230Z,94064.72
2023-01-27T04:14:09.604Z,94025.34
2023-01-27T04:16:39.933Z,94016.28
2023-01-27T04:19:09.712Z,93983.53
2023-01-27T04:21:37.957Z,93964.34
2023-01-27T04:24:08.876Z,93935.31
2023-01-27T04:26:36.793Z,93929.97
2023-01-27T04:29:07.512Z,93907.53
2023-01-27T04:31:35.340Z,93881.59
2023-01-27T04:34:04.554Z,93884.81
2023-01-27T04:36:32.499Z,93915.00
2023-01-27T04:39:00.254Z,93940.78
2023-01-27T04:41:28.222Z,93915.63
2023-01-27T04:43:56.004Z,93930.16
2023-01-27T04:46:24.134Z,93928.38
2023-01-27T04:48:51.977Z,93889.63
2023-01-27T04:51:21.274Z,93883.19
2023-01-27T04:53:49.238Z,93861.44
2023-01-27T04:56:24.146Z,93853.69
2023-01-27T04:58:52.252Z,93858.84
2023-01-27T05:01:20.584Z,93871.13
2023-01-27T05:03:48.378Z,93879.16
2023-01-27T05:06:16.874Z,93837.25
2023-01-27T05:08:46.197Z,93788.56
2023-01-27T05:11:14.476Z,93779.59
2023-01-27T05:13:42.682Z,93822.09
2023-01-27T05:16:13.753Z,93812.13
2023-01-27T05:18:43.432Z,93802.09
2023-01-27T05:21:13.993Z,93776.16
2023-01-27T05:23:42.361Z,93784.19
2023-01-27T05:26:13.335Z,93819.69
2023-01-27T05:28:42.717Z,93849.50
2023-01-27T05:31:12.961Z,93878.84
2023-01-27T05:33:42.084Z,93878.84
2023-01-27T05:36:12.650Z,93887.84
2023-01-27T05:38:40.630Z,93905.59
2023-01-27T05:41:10.023Z,93902.38
2023-01-27T05:43:40.593Z,93903.84
2023-01-27T05:46:11.394Z,93905.59
2023-01-27T05:48:41.402Z,93874.81
2023-01-27T05:51:10.403Z,93836.91
2023-01-27T05:53:39.213Z,93798.56
2023-01-27T05:56:10.344Z,93776.63
2023-01-27T05:58:40.266Z,93762.78
2023-01-27T06:01:09.682Z,93765.19
2023-01-27T06:03:38.049Z,93804.53
2023-01-27T06:06:06.789Z,93813.72
2023-01-27T06:08:35.317Z,93790.50
2023-01-27T06:11:03.178Z,93773.09
2023-01-27T06:13:31.241Z,93750.22
2023-01-27T06:16:00.583Z,93715.09
2023-01-27T06:18:28.371Z,93718.66
2023-01-27T06:20:58.902Z,93715.91
2023-01-27T06:23:28.383Z,93745.06
2023-01-27T06:25:57.765Z,93754.41
2023-01-27T06:28:29.881Z,93721.53
2023-01-27T06:31:05.032Z,93698.34
2023-01-27T06:33:34.514Z,93667.91
2023-01-27T06:36:03.539Z,93644.06
2023-01-27T06:38:31.625Z,93634.88
2023-01-27T06:40:59.555Z,93698.34
2023-01-27T06:43:27.394Z,93711.25
2023-01-27T06:45:57.521Z,93676.41
2023-01-27T06:48:25.481Z,93643.88
2023-01-27T06:50:55.358Z,93659.03
2023-01-27T06:53:23.370Z,93669.00
2023-01-27T06:55:56.495Z,93694.31
2023-01-27T06:58:24.522Z,93723.13
2023-01-27T07:00:53.106Z,93739.66
2023-01-27T07:03:21.220Z,93761.81
2023-01-27T07:05:49.092Z,93758.25
2023-01-27T07:08:18.320Z,93751.81
2023-01-27T07:10:46.204Z,93730.25
2023-01-27T07:13:15.904Z,93738.44
2023-01-27T07:15:44.137Z,93742.28
2023-01-27T07:18:13.803Z,93781.78
2023-01-27T07:20:42.137Z,93795.31
2023-01-27T07:23:11.006Z,93787.56
2023-01-27T07:25:48.937Z,93825.31
2023-01-27T07:28:17.079Z,93844.66
2023-01-27T07:30:45.084Z,93862.06
2023-01-27T07:33:14.754Z,93846.91
2023-01-27T07:35:42.931Z,93835.31
2023-01-27T07:38:10.800Z,93835.31
2023-01-27T07:40:38.862Z,93847.88
2023-01-27T07:43:08.002Z,93844.50
2023-01-27T07:45:36.052Z,93852.72
2023-01-27T07:48:05.625Z,93865.44
2023-01-27T07:50:33.659Z,93878.50
2023-01-27T07:53:02.079Z,93903.00
2023-01-27T07:55:31.241Z,93904.47
2023-01-27T07:57:59.250Z,93929.81
2023-01-27T08:00:29.425Z,93925.63
2023-01-27T08:02:58.940Z,93919.81
2023-01-27T08:05:27.505Z,93919.66
2023-01-27T08:07:58.615Z,93930.63
2023-01-27T08:10:27.436Z,93929.66
2023-01-27T08:12:55.345Z,93948.84
2023-01-27T08:15:23.131Z,93979.81
2023-01-27T08:17:56.382Z,93997.22
2023-01-27T08:20:24.682Z,94032.59
2023-01-27T08:22:52.567Z,94055.19
2023-01-27T08:25:23.645Z,94097.94
2023-01-27T08:27:52.343Z,94116.69
2023-01-27T08:30:20.677Z,94158.03
2023-01-27T08:32:48.857Z,94183.22
2023-01-27T08:35:18.087Z,94217.50
2023-01-27T08:37:48.472Z,94256.94
2023-01-27T08:40:17.013Z,94301.38
2023-01-27T08:42:45.060Z,94356.69
2023-01-27T08:45:12.939Z,94383.72
2023-01-27T08:47:40.754Z,94408.63
2023-01-27T08:50:10.052Z,94429.63
2023-01-27T08:52:39.546Z,94449.25
2023-01-27T08:55:07.796Z,94470.44
2023-01-27T08:57:36.959Z,94485.34
2023-01-27T09:00:06.432Z,94526.63
2023-01-27T09:02:34.304Z,94565.97
2023-01-27T09:05:02.174Z,94609.69
2023-01-27T09:07:30.057Z,94749.06
2023-01-27T09:10:13.247Z,94846.72
2023-01-27T09:12:42.326Z,94892.66
2023-01-27T09:15:11.121Z,94963.56
2023-01-27T09:17:39.030Z,95013.28
2023-01-27T09:20:07.840Z,95116.13
2023-01-27T09:22:36.682Z,95180.00
2023-01-27T09:25:06.375Z,95262.94
2023-01-27T09:27:39.590Z,95337.13
2023-01-27T09:30:09.326Z,95401.25
2023-01-27T09:32:37.149Z,95458.88
2023-01-27T09:35:05.709Z,95477.31
2023-01-27T09:37:35.178Z,95506.28
2023-01-27T09:40:10.765Z,95538.91
2023-01-27T09:42:51.989Z,95579.47
2023-01-27T09:45:37.524Z,95622.78
2023-01-27T09:48:18.863Z,95660.28
2023-01-27T09:50:48.715Z,95659.75
2023-01-27T09:53:28.765Z,95681.03
2023-01-27T09:56:06.023Z,95661.63
2023-01-27T09:58:46.951Z,95663.56
2023-01-27T10:01:29.263Z,95634.69
2023-01-27T10:04:23.492Z,95627.84
2023-01-27T10:07:11.021Z,95603.41
2023-01-27T10:09:56.664Z,95602.59
2023-01-27T10:12:50.601Z,95599.31
2023-01-27T10:15:34.449Z,95599.00
2023-01-27T10:18:20.511Z,95661.13
2023-01-27T10:21:01.005Z,95731.88
2023-01-27T10:23:42.649Z,96069.09
2023-01-27T10:26:19.656Z,96784.66
2023-01-27T10:28:52.233Z,97616.44
2023-01-27T10:31:27.937Z,98374.34
2023-01-27T10:33:58.387Z,98858.69
2023-01-27T10:36:29.999Z,99227.56
2023-01-27T10:39:13.511Z,99509.69
2023-01-27T10:41:54.159Z,100058.16
2023-01-27T10:44:37.743Z,100242.66
2023-01-27T10:47:13.578Z,100154.78
2023-01-27T10:49:44.661Z,100616.50
2023-01-27T10:52:17.550Z,100691.38
2023-01-27T10:54:53.861Z,101212.00
2023-01-27T10:57:27.179Z,101622.13
2023-01-27T11:00:36.942Z,101497.66
2023-01-27T11:03:01.518Z,101759.09
2023-01-27T11:05:34.461Z,100965.91
2023-01-27T11:08:06.166Z,101831.00
2023-01-27T11:10:38.799Z,101287.66
2023-01-27T11:13:08.121Z,101257.97
2023-01-27T11:15:37.928Z,100857.56
2023-01-27T11:18:13.531Z,100650.13
2023-01-27T11:20:45.582Z,101110.97
2023-01-27T11:23:19.244Z,100957.38
2023-01-27T11:25:52.847Z,100896.25
2023-01-27T11:28:30.328Z,100264.13
2023-01-27T11:31:08.954Z,100020.66
2023-01-27T11:33:51.799Z,100220.72
2023-01-27T11:36:19.660Z,100484.22
2023-01-27T11:38:47.963Z,100241.50
2023-01-27T11:41:15.993Z,100078.88
2023-01-27T11:43:43.826Z,99775.00
2023-01-27T11:46:18.816Z,99920.75
2023-01-27T11:48:51.243Z,99930.38
2023-01-27T11:51:21.959Z,99833.16
2023-01-27T11:53:56.521Z,99677.88
2023-01-27T11:56:26.789Z,99523.63
2023-01-27T11:59:02.300Z,99535.69
2023-01-27T12:01:47.188Z,99205.97
2023-01-27T12:04:22.418Z,98756.19
2023-01-27T12:06:55.606Z,98415.94
2023-01-27T12:09:35.567Z,98274.81
2023-01-27T12:12:12.918Z,98199.16
2023-01-27T12:14:40.955Z,98147.66
2023-01-27T12:17:19.528Z,97940.94
2023-01-27T12:19:48.010Z,97923.59
2023-01-27T12:22:25.596Z,97748.56
2023-01-27T12:24:57.668Z,97699.03
2023-01-27T12:27:29.701Z,97633.69
2023-01-27T12:30:01.347Z,97559.28
2023-01-27T12:32:39.172Z,97513.94
2023-01-27T12:35:08.613Z,97400.22
2023-01-27T12:37:39.634Z,97327.44
2023-01-27T12:40:09.503Z,97180.59
2023-01-27T12:42:41.389Z,97108.84
2023-01-27T12:45:25.097Z,97051.66
2023-01-27T12:48:00.173Z,97028.63
2023-01-27T12:50:29.996Z,96993.06
2023-01-27T12:53:12.809Z,96938.25
2023-01-27T12:55:43.191Z,96969.63
2023-01-27T12:58:39.917Z,96881.19
2023-01-27T13:01:28.285Z,96865.78
2023-01-27T13:04:00.497Z,96796.69
2023-01-27T13:06:39.414Z,96811.28
2023-01-27T13:09:07.232Z,96805.22
2023-01-27T13:11:38.629Z,96754.13
2023-01-27T13:14:10.086Z,96690.31
2023-01-27T13:16:39.067Z,96701.19
2023-01-27T13:19:18.234Z,96651.78
2023-01-27T13:21:49.356Z,96725.94
2023-01-27T13:24:23.405Z,96740.53
2023-01-27T13:26:52.603Z,96629.66
2023-01-27T13:29:27.879Z,96590.31
2023-01-27T13:32:02.947Z,96555.69
2023-01-27T13:34:40.485Z,96519.13
2023-01-27T13:37:13.079Z,96454.31
2023-01-27T13:39:49.443Z,96532.44
2023-01-27T13:42:22.621Z,96482.44
2023-01-27T13:44:56.073Z,96435.72
2023-01-27T13:47:28.046Z,96425.41
2023-01-27T13:50:01.275Z,96397.41
2023-01-27T13:52:29.443Z,96359.13
2023-01-27T13:54:57.324Z,96360.75
2023-01-27T13:57:52.577Z,96349.78
2023-01-27T14:00:23.976Z,96326.88
2023-01-27T14:03:36.639Z,96300.94
2023-01-27T14:06:19.937Z,96305.41
2023-01-27T14:08:59.945Z,96311.47
2023-01-27T14:11:33.642Z,96360.91
2023-01-27T14:14:18.702Z,96295.50
2023-01-27T14:17:01.724Z,96281.03
2023-01-27T14:19:41.076Z,96247.81
2023-01-27T14:22:17.551Z,96177.31
2023-01-27T14:24:50.500Z,96115.19
2023-01-27T14:27:24.430Z,96094.22
2023-01-27T14:29:59.048Z,96061.13
2023-01-27T14:32:35.136Z,96077.88
2023-01-27T14:35:23.927Z,96028.84
2023-01-27T14:38:06.029Z,96002.72
2023-01-27T14:40:39.868Z,95938.03
2023-01-27T14:43:25.284Z,95917.78
2023-01-27T14:46:00.985Z,95885.78
2023-01-27T14:48:41.874Z,95811.31
2023-01-27T14:51:18.326Z,95769.69
2023-01-27T14:54:12.170Z,95716.38
2023-01-27T14:56:46.268Z,95646.06
2023-01-27T14:59:29.106Z,95597.19
2023-01-27T15:02:05.032Z,95570.94
2023-01-27T15:04:42.322Z,95502.34
2023-01-27T15:07:17.899Z,95445.69
2023-01-27T15:10:01.581Z,95478.75
2023-01-27T15:12:52.261Z,95411.16
2023-01-27T15:16:04.200Z,95339.22
2023-01-27T15:18:46.236Z,95292.19
2023-01-27T15:21:49.096Z,95235.59
2023-01-27T15:24:46.064Z,95179.81
2023-01-27T15:27:15.652Z,95155.28
2023-01-27T15:29:43.529Z,95123.41
2023-01-27T15:32:27.647Z,95095.44
2023-01-27T15:35:31.706Z,95040.56
2023-01-27T15:38:01.303Z,95065.09
2023-01-27T15:40:29.900Z,95044.13
2023-01-27T15:43:06.096Z,95015.38
2023-01-27T15:45:35.569Z,95002.72
2023-01-27T15:48:07.867Z,94980.13
2023-01-27T15:50:39.499Z,94962.28
2023-01-27T15:53:14.585Z,94946.38
2023-01-27T15:55:50.385Z,94928.69
2023-01-27T15:58:32.871Z,94901.59
2023-01-27T16:01:02.496Z,94868.78
2023-01-27T16:03:33.314Z,94853.84
2023-01-27T16:06:08.994Z,94817.53
2023-01-27T16:08:42.424Z,94767.72
2023-01-27T16:11:23.963Z,94767.88
2023-01-27T16:13:54.023Z,94743.72
2023-01-27T16:16:36.157Z,94707.25
2023-01-27T16:19:19.557Z,94693.00
2023-01-27T16:21:53.024Z,94683.28
2023-01-27T16:24:29.923Z,94660.25
2023-01-27T16:27:06.866Z,94671.28
2023-01-27T16:29:40.524Z,94638.69
2023-01-27T16:32:17.068Z,94693.00
2023-01-27T16:34:49.881Z,94657.66
2023-01-27T16:37:24.501Z,94633.34
2023-01-27T16:39:57.399Z,94609.69
2023-01-27T16:42:30.787Z,94572.78
2023-01-27T16:45:03.442Z,94540.22
2023-01-27T16:47:44.461Z,94519.97
2023-01-27T16:50:37.065Z,94476.13
2023-01-27T16:53:06.794Z,94463.00
2023-01-27T16:55:34.696Z,94454.44
2023-01-27T16:58:03.686Z,94435.66
2023-01-27T17:00:35.995Z,94431.41
2023-01-27T17:03:09.388Z,94418.00
2023-01-27T17:05:37.627Z,94416.38
2023-01-27T17:08:17.388Z,94410.56
2023-01-27T17:10:50.139Z,94385.50
2023-01-27T17:13:29.569Z,94382.91
2023-01-27T17:16:00.645Z,94369.47
2023-01-27T17:18:37.547Z,94341.81
2023-01-27T17:21:09.764Z,94299.75
2023-01-27T17:23:39.590Z,94304.94
2023-01-27T17:26:13.615Z,94292.16
2023-01-27T17:28:43.222Z,94279.88
2023-01-27T17:31:20.214Z,94250.31
2023-01-27T17:33:50.265Z,94228.66
2023-01-27T17:36:18.098Z,94206.66
2023-01-27T17:38:49.579Z,94194.22
2023-01-27T17:41:35.965Z,94267.91
2023-01-27T17:44:10.226Z,94257.56
2023-01-27T17:46:40.385Z,94270.50
2023-01-27T17:49:13.357Z,94342.47
2023-01-27T17:51:45.462Z,94395.34
2023-01-27T17:54:24.279Z,94360.91
2023-01-27T17:56:58.593Z,94461.06
2023-01-27T17:59:27.651Z,94473.34
2023-01-27T18:02:02.428Z,94585.09
2023-01-27T18:04:35.783Z,94634.66
2023-01-27T18:07:04.008Z,94685.22
2023-01-27T18:09:32.588Z,94733.03
2023-01-27T18:12:02.727Z,94781.84
2023-01-27T18:14:34.563Z,94812.66
2023-01-27T18:17:06.581Z,94841.22
2023-01-27T18:19:35.390Z,94813.63
2023-01-27T18:22:14.421Z,94785.91
2023-01-27T18:24:49.618Z,94806.19
2023-01-27T18:27:29.869Z,94807.47
2023-01-27T18:30:02.180Z,94796.59
2023-01-27T18:32:40.209Z,94803.25
2023-01-27T18:35:25.553Z,94859.38
2023-01-27T18:37:56.831Z,94905.47
2023-01-27T18:40:30.150Z,94900.94
2023-01-27T18:42:58.904Z,94926.56
2023-01-27T18:45:27.215Z,94940.53
2023-01-27T18:47:56.918Z,94999.66
2023-01-27T18:50:26.693Z,95002.91
2023-01-27T18:52:55.215Z,94988.59
2023-01-27T18:55:25.629Z,94962.59
2023-01-27T18:57:55.406Z,94967.50
2023-01-27T19:00:25.369Z,94963.41
2023-01-27T19:02:56.374Z,94968.44
2023-01-27T19:05:28.316Z,94965.84
2023-01-27T19:07:56.234Z,94982.75
2023-01-27T19:10:25.983Z,94992.03
2023-01-27T19:12:54.012Z,94983.56
2023-01-27T19:15:24.036Z,95013.94
2023-01-27T19:17:53.866Z,95044.97
2023-01-27T19:20:23.105Z,95043.50
2023-01-27T19:22:53.940Z,95039.44
2023-01-27T19:25:23.169Z,95010.84
2023-01-27T19:27:53.484Z,94954.16
2023-01-27T19:30:27.022Z,94918.94
2023-01-27T19:32:55.684Z,94960.97
2023-01-27T19:35:24.640Z,94895.09
2023-01-27T19:37:56.559Z,94825.97
2023-01-27T19:40:26.177Z,94800.34
2023-01-27T19:42:54.309Z,94808.59
2023-01-27T19:45:23.432Z,94873.34
2023-01-27T19:47:52.930Z,94908.72
2023-01-27T19:50:23.372Z,94932.91
2023-01-27T19:52:52.983Z,94919.28
2023-01-27T19:55:21.784Z,94924.94
2023-01-27T19:57:51.104Z,94856.63
2023-01-27T20:00:23.296Z,94861.50
2023-01-27T20:02:51.764Z,94898.66
2023-01-27T20:05:19.962Z,94909.03
2023-01-27T20:07:48.992Z,94895.41
2023-01-27T20:10:21.556Z,94830.19
2023-01-27T20:12:57.494Z,94795.00
2023-01-27T20:15:27.088Z,94727.84
2023-01-27T20:17:55.552Z,94732.88
2023-01-27T20:20:24.561Z,94696.56
2023-01-27T20:22:53.082Z,94665.63
2023-01-27T20:25:24.514Z,94685.72
2023-01-27T20:27:54.239Z,94705.81
2023-01-27T20:30:24.538Z,94714.41
2023-01-27T20:32:55.064Z,94746.31
2023-01-27T20:35:24.003Z,94769.22
2023-01-27T20:37:53.316Z,94779.25
2023-01-27T20:40:24.595Z,94780.88
2023-01-27T20:42:53.459Z,94750.41
2023-01-27T20:45:22.241Z,94781.53
2023-01-27T20:47:50.894Z,94785.75
2023-01-27T20:50:18.992Z,94786.06
2023-01-27T20:52:48.345Z,94800.00
2023-01-27T20:55:17.380Z,94812.81
2023-01-27T20:57:47.077Z,94801.00
2023-01-27T21:00:17.452Z,94776.50
2023-01-27T21:02:45.452Z,94756.41
2023-01-27T21:05:14.009Z,94766.28
2023-01-27T21:07:41.999Z,94762.41
2023-01-27T21:10:10.978Z,94740.66
2023-01-27T21:12:38.810Z,94740.66
2023-01-27T21:15:10.004Z,94770.84
2023-01-27T21:17:38.032Z,94795.00
2023-01-27T21:20:07.491Z,94836.03
2023-01-27T21:22:35.483Z,94860.03
2023-01-27T21:25:03.300Z,94852.88
2023-01-27T21:27:31.225Z,94860.53
2023-01-27T21:29:59.177Z,94844.44
2023-01-27T21:32:28.382Z,94837.00
2023-01-27T21:34:56.557Z,94831.47
2023-01-27T21:37:24.590Z,94835.22
2023-01-27T21:39:52.438Z,94822.72
2023-01-27T21:42:37.796Z,94855.47
2023-01-27T21:45:16.443Z,94896.06
2023-01-27T21:47:45.870Z,94898.34
2023-01-27T21:50:14.788Z,94932.09
2023-01-27T21:52:45.399Z,94946.38
2023-01-27T21:55:15.038Z,94959.03
2023-01-27T21:57:43.357Z,94963.94
2023-01-27T22:00:36.995Z,94971.56
2023-01-27T22:03:06.187Z,94953.03
2023-01-27T22:05:36.627Z,94945.72
2023-01-27T22:08:06.716Z,94955.78
2023-01-27T22:10:34.797Z,94933.72
2023-01-27T22:13:04.625Z,94932.75
2023-01-27T22:15:33.333Z,94925.59
2023-01-27T22:18:01.346Z,94951.41
2023-01-27T22:20:30.597Z,94952.22
2023-01-27T22:22:58.333Z,94986.00
2023-01-27T22:25:27.323Z,94965.84
2023-01-27T22:27:56.176Z,94975.94
2023-01-27T22:30:24.613Z,94982.59
2023-01-27T22:32:52.425Z,94986.00
2023-01-27T22:35:20.542Z,94977.56
2023-01-27T22:37:49.944Z,94970.09
2023-01-27T22:40:18.785Z,94963.94
2023-01-27T22:42:48.600Z,94960.66
2023-01-27T22:45:17.837Z,94989.25
2023-01-27T22:47:45.645Z,95019.63
2023-01-27T22:50:13.599Z,95036.34
2023-01-27T22:52:41.495Z,95034.72
2023-01-27T22:55:12.432Z,95049.19
2023-01-27T22:57:40.444Z,95014.59
2023-01-27T23:00:09.861Z,95016.22
2023-01-27T23:02:37.799Z,95025.47
2023-01-27T23:05:06.129Z,95046.75
2023-01-27T23:07:34.067Z,95034.72
2023-01-27T23:10:01.893Z,94991.84
2023-01-27T23:12:31.207Z,94998.03
2023-01-27T23:15:01.654Z,95011.19
2023-01-27T23:17:29.519Z,94986.00
2023-01-27T23:19:57.280Z,94995.28
2023-01-27T23:22:25.230Z,95034.22
2023-01-27T23:24:53.049Z,95045.13
2023-01-27T23:27:20.898Z,95041.53
2023-01-27T23:29:50.046Z,95038.28
2023-01-27T23:32:17.843Z,95032.28
2023-01-27T23:34:45.706Z,95043.50
2023-01-27T23:37:13.487Z,95045.75
2023-01-27T23:39:45.735Z,95061.69
2023-01-27T23:42:13.594Z,95089.66
2023-01-27T23:44:41.501Z,95102.31
2023-01-27T23:47:11.476Z,95077.78
2023-01-27T23:49:39.319Z,95061.84
2023-01-27T23:52:07.270Z,95066.06
2023-01-27T23:54:35.057Z,95095.50
2023-01-27T23:57:02.869Z,95108.00
2023-01-27T23:59:30.796Z,95143.44
